Time;durP1;ratioP1;P1;durP2;ratioP2;P2;SDS_P1;SDS_P2;PMS_P1;PMS_P2;Temp;Humidity;BMP_temperature;BMP_pressure;BME280_temperature;BME280_humidity;BME280_pressure;Samples;Min_cycle;Max_cycle;Signal;HPM_P1;HPM_P2
2021/05/27 00:02:17;;;;;;;14.73;9.43;;;;;;;;;;5070699;28;20246;-69
2021/05/27 00:05:03;;;;;;;17.00;10.13;;;;;;;;;;5070501;28;20278;-70
2021/05/27 00:07:48;;;;;;;17.20;11.13;;;;;;;;;;5070586;28;20323;-69
2021/05/27 00:10:33;;;;;;;20.00;11.37;;;;;;;;;;5070820;28;20225;-69
2021/05/27 00:13:17;;;;;;;14.97;10.43;;;;;;;;;;5070570;28;20228;-70
2021/05/27 00:16:01;;;;;;;16.70;11.57;;;;;;;;;;5070251;28;20245;-69
2021/05/27 00:18:51;;;;;;;20.00;11.37;;;;;;;;;;5070758;28;20568;-69
2021/05/27 00:21:36;;;;;;;16.67;11.07;;;;;;;;;;5070644;28;20818;-69
2021/05/27 00:24:21;;;;;;;19.17;12.20;;;;;;;;;;5070638;28;20227;-69
2021/05/27 00:27:06;;;;;;;19.90;11.83;;;;;;;;;;5070397;28;20606;-69
2021/05/27 00:29:50;;;;;;;19.80;11.67;;;;;;;;;;5070673;28;20204;-69
2021/05/27 00:32:35;;;;;;;20.17;12.10;;;;;;;;;;5070503;28;20200;-69
2021/05/27 00:35:19;;;;;;;21.33;12.10;;;;;;;;;;5069850;28;20267;-69
2021/05/27 00:38:04;;;;;;;20.90;12.27;;;;;;;;;;5070337;28;20202;-69
2021/05/27 00:40:50;;;;;;;24.07;12.43;;;;;;;;;;5070498;28;20223;-69
2021/05/27 00:43:34;;;;;;;22.47;12.73;;;;;;;;;;5070343;28;20752;-71
2021/05/27 00:46:18;;;;;;;21.97;12.77;;;;;;;;;;5069888;28;20247;-71
2021/05/27 00:49:03;;;;;;;21.97;12.53;;;;;;;;;;5070324;28;20707;-69
2021/05/27 00:51:48;;;;;;;24.00;13.37;;;;;;;;;;5070557;28;20779;-69
2021/05/27 00:54:33;;;;;;;19.43;11.80;;;;;;;;;;5070154;28;20497;-69
2021/05/27 00:57:23;;;;;;;20.37;12.00;;;;;;;;;;5069878;28;20289;-69
2021/05/27 01:00:09;;;;;;;18.00;12.03;;;;;;;;;;5070265;28;20236;-70
2021/05/27 01:02:54;;;;;;;23.67;11.33;;;;;;;;;;5070194;28;20223;-70
2021/05/27 01:05:39;;;;;;;17.23;11.07;;;;;;;;;;5069777;28;20679;-69
2021/05/27 01:08:24;;;;;;;22.70;11.50;;;;;;;;;;5069922;28;20224;-69
2021/05/27 01:11:08;;;;;;;22.70;11.17;;;;;;;;;;5070264;28;20323;-69
2021/05/27 01:13:54;;;;;;;18.63;11.10;;;;;;;;;;5069957;28;20233;-69
2021/05/27 01:16:38;;;;;;;19.40;10.73;;;;;;;;;;5069885;28;20204;-69
2021/05/27 01:19:22;;;;;;;17.87;11.30;;;;;;;;;;5070458;28;20201;-69
2021/05/27 01:22:07;;;;;;;22.47;12.23;;;;;;;;;;5072913;28;20277;-70
2021/05/27 01:24:52;;;;;;;23.40;11.80;;;;;;;;;;5073579;28;20719;-69
2021/05/27 01:27:36;;;;;;;23.90;13.57;;;;;;;;;;5073116;28;20466;-69
2021/05/27 01:30:21;;;;;;;26.03;12.73;;;;;;;;;;5073706;28;20718;-69
2021/05/27 01:33:09;;;;;;;20.87;13.23;;;;;;;;;;5073713;28;20263;-69
2021/05/27 01:35:55;;;;;;;20.47;12.50;;;;;;;;;;5072787;28;20315;-69
2021/05/27 01:38:41;;;;;;;25.60;12.43;;;;;;;;;;5073521;28;20251;-69
2021/05/27 01:41:25;;;;;;;24.87;12.47;;;;;;;;;;5073410;28;20204;-69
2021/05/27 01:44:12;;;;;;;20.80;13.37;;;;;;;;;;5073280;28;20220;-69
2021/05/27 01:46:57;;;;;;;24.67;13.20;;;;;;;;;;5072841;28;20309;-69
2021/05/27 01:49:42;;;;;;;22.60;12.97;;;;;;;;;;5073228;28;20667;-69
2021/05/27 01:52:26;;;;;;;21.43;11.63;;;;;;;;;;5073194;28;20251;-69
2021/05/27 01:55:13;;;;;;;19.10;11.97;;;;;;;;;;5072316;28;20224;-69
2021/05/27 01:58:00;;;;;;;22.07;12.40;;;;;;;;;;5072807;28;20200;-70
2021/05/27 02:00:47;;;;;;;22.03;11.70;;;;;;;;;;5073104;28;20200;-69
2021/05/27 02:03:31;;;;;;;22.73;12.10;;;;;;;;;;5073431;28;20216;-69
2021/05/27 02:06:16;;;;;;;21.27;12.13;;;;;;;;;;5072594;28;20208;-69
2021/05/27 02:09:12;;;;;;;19.50;11.53;;;;;;;;;;5072934;28;20201;-69
2021/05/27 02:11:58;;;;;;;22.20;12.23;;;;;;;;;;5073026;28;20608;-70
2021/05/27 02:14:44;;;;;;;24.67;12.03;;;;;;;;;;5072743;28;20722;-69
2021/05/27 02:17:30;;;;;;;21.97;12.53;;;;;;;;;;5072510;28;20251;-70
2021/05/27 02:20:15;;;;;;;26.08;15.55;;;;;;;;;;5071636;28;20436;-69
2021/05/27 02:23:02;;;;;;;22.70;12.50;;;;;;;;;;5072688;28;20312;-70
2021/05/27 02:25:47;;;;;;;22.53;13.43;;;;;;;;;;5072265;28;20236;-69
2021/05/27 02:28:35;;;;;;;25.47;12.73;;;;;;;;;;5072473;28;20227;-69
2021/05/27 02:31:20;;;;;;;23.10;13.00;;;;;;;;;;5072235;28;20228;-69
2021/05/27 02:34:11;;;;;;;28.40;14.53;;;;;;;;;;5072080;28;20216;-69
2021/05/27 02:36:55;;;;;;;27.20;15.17;;;;;;;;;;5071948;28;20197;-69
2021/05/27 02:39:40;;;;;;;24.30;14.10;;;;;;;;;;5072296;28;20259;-69
2021/05/27 02:42:24;;;;;;;26.23;13.30;;;;;;;;;;5072182;28;20204;-69
2021/05/27 02:45:12;;;;;;;24.30;14.13;;;;;;;;;;5071847;28;20215;-69
2021/05/27 02:47:56;;;;;;;21.07;13.67;;;;;;;;;;5072214;28;20216;-70
2021/05/27 02:50:42;;;;;;;29.93;14.43;;;;;;;;;;5071870;28;20201;-69
2021/05/27 02:53:27;;;;;;;28.30;13.43;;;;;;;;;;5071714;28;20247;-69
2021/05/27 02:56:11;;;;;;;26.93;13.73;;;;;;;;;;5071243;28;20702;-69
2021/05/27 02:58:56;;;;;;;26.70;13.67;;;;;;;;;;5071941;28;20616;-69
2021/05/27 03:01:41;;;;;;;26.47;13.17;;;;;;;;;;5071741;28;20251;-69
2021/05/27 03:04:25;;;;;;;25.63;12.77;;;;;;;;;;5071750;28;20638;-69
2021/05/27 03:07:10;;;;;;;27.60;13.27;;;;;;;;;;5071719;28;20246;-70
2021/05/27 03:09:55;;;;;;;23.60;12.33;;;;;;;;;;5071956;28;20205;-69
2021/05/27 03:12:41;;;;;;;23.63;12.77;;;;;;;;;;5071282;28;20605;-69
2021/05/27 03:15:26;;;;;;;19.20;11.67;;;;;;;;;;5071001;28;20308;-69
2021/05/27 03:18:13;;;;;;;23.37;12.67;;;;;;;;;;5071604;28;20232;-69
2021/05/27 03:20:58;;;;;;;24.47;12.03;;;;;;;;;;5071548;28;20726;-69
2021/05/27 03:23:42;;;;;;;23.47;13.07;;;;;;;;;;5071056;28;20240;-69
2021/05/27 03:26:30;;;;;;;20.80;11.97;;;;;;;;;;5070969;28;20254;-69
2021/05/27 03:29:21;;;;;;;22.43;11.60;;;;;;;;;;5071309;28;20223;-70
2021/05/27 03:32:07;;;;;;;23.30;12.53;;;;;;;;;;5071260;28;20196;-69
2021/05/27 03:34:55;;;;;;;22.07;11.97;;;;;;;;;;5070892;28;20233;-69
2021/05/27 03:37:40;;;;;;;23.80;11.80;;;;;;;;;;5070903;28;20208;-70
2021/05/27 03:40:25;;;;;;;21.20;11.53;;;;;;;;;;5070988;28;20204;-70
2021/05/27 03:43:09;;;;;;;19.40;10.83;;;;;;;;;;5070810;28;20217;-69
2021/05/27 03:45:54;;;;;;;20.87;11.73;;;;;;;;;;5071052;28;20342;-69
2021/05/27 03:48:38;;;;;;;25.33;12.87;;;;;;;;;;5071160;28;20250;-69
2021/05/27 03:51:24;;;;;;;23.43;11.90;;;;;;;;;;5071017;28;20200;-69
2021/05/27 03:54:08;;;;;;;24.27;11.43;;;;;;;;;;5070755;28;20243;-70
2021/05/27 03:56:53;;;;;;;23.20;12.37;;;;;;;;;;5070269;28;20197;-69
2021/05/27 04:02:43;;;;;;;22.53;11.37;;;;;;;;;;5070633;28;20216;-69
2021/05/27 04:08:32;;;;;;;19.60;11.73;;;;;;;;;;5070984;28;20409;-69
2021/05/27 04:11:16;;;;;;;25.77;12.07;;;;;;;;;;5070882;28;20316;-69
2021/05/27 04:14:01;;;;;;;24.33;11.60;;;;;;;;;;5070540;28;20233;-70
2021/05/27 04:16:45;;;;;;;21.57;12.03;;;;;;;;;;5070320;28;20244;-69
2021/05/27 04:19:30;;;;;;;24.83;11.27;;;;;;;;;;5070442;28;20242;-70
2021/05/27 04:22:14;;;;;;;19.17;11.53;;;;;;;;;;5070640;28;20679;-69
2021/05/27 04:25:01;;;;;;;24.87;11.93;;;;;;;;;;5070678;28;20220;-69
2021/05/27 04:27:46;;;;;;;21.73;11.50;;;;;;;;;;5070517;28;20219;-69
2021/05/27 04:30:31;;;;;;;22.17;11.00;;;;;;;;;;5070615;28;20204;-69
2021/05/27 04:33:15;;;;;;;24.50;11.87;;;;;;;;;;5070682;28;20505;-69
2021/05/27 04:36:06;;;;;;;22.07;11.10;;;;;;;;;;5069747;28;20366;-69
2021/05/27 04:39:00;;;;;;;23.77;11.30;;;;;;;;;;5070788;28;20196;-69
2021/05/27 04:41:58;;;;;;;22.13;14.15;;;;;;;;;;5069778;28;20427;-69
2021/05/27 04:44:42;;;;;;;23.57;12.77;;;;;;;;;;5070608;28;20251;-69
2021/05/27 04:47:27;;;;;;;21.03;11.73;;;;;;;;;;5070383;28;20208;-70
2021/05/27 04:50:12;;;;;;;20.87;11.90;;;;;;;;;;5070499;28;20200;-69
2021/05/27 04:52:56;;;;;;;18.93;11.60;;;;;;;;;;5070117;28;20212;-70
2021/05/27 04:55:40;;;;;;;22.27;11.43;;;;;;;;;;5070512;28;20268;-69
2021/05/27 04:58:25;;;;;;;20.97;12.03;;;;;;;;;;5074317;28;20219;-69
2021/05/27 05:01:10;;;;;;;20.73;11.17;;;;;;;;;;5074070;28;20685;-70
2021/05/27 05:03:54;;;;;;;21.80;11.77;;;;;;;;;;5073863;28;20271;-69
2021/05/27 05:06:39;;;;;;;22.33;12.13;;;;;;;;;;5073607;28;20577;-69
2021/05/27 05:09:23;;;;;;;25.27;11.93;;;;;;;;;;5073955;28;20243;-69
2021/05/27 05:12:08;;;;;;;23.43;12.33;;;;;;;;;;5074098;28;20200;-69
2021/05/27 05:14:55;;;;;;;25.07;11.87;;;;;;;;;;5073572;28;20223;-70
2021/05/27 05:17:40;;;;;;;22.17;11.57;;;;;;;;;;5073882;28;20683;-70
2021/05/27 05:20:25;;;;;;;24.50;12.60;;;;;;;;;;5073886;28;20706;-70
2021/05/27 05:23:10;;;;;;;23.80;12.23;;;;;;;;;;5073701;28;20224;-70
2021/05/27 05:25:55;;;;;;;22.70;11.63;;;;;;;;;;5073295;28;20236;-70
2021/05/27 05:28:39;;;;;;;24.57;11.87;;;;;;;;;;5073676;28;20208;-70
2021/05/27 05:31:25;;;;;;;26.13;12.03;;;;;;;;;;5074024;28;20200;-70
2021/05/27 05:34:09;;;;;;;24.13;11.57;;;;;;;;;;5073457;28;20710;-69
2021/05/27 05:36:53;;;;;;;19.27;11.43;;;;;;;;;;5072947;28;20200;-70
2021/05/27 05:39:38;;;;;;;20.33;10.10;;;;;;;;;;5073609;28;20251;-69
2021/05/27 05:42:23;;;;;;;21.73;11.87;;;;;;;;;;5073853;28;20683;-70
2021/05/27 05:45:08;;;;;;;21.90;11.27;;;;;;;;;;5073061;28;20200;-69
2021/05/27 05:47:53;;;;;;;21.93;10.97;;;;;;;;;;5073432;28;20232;-69
2021/05/27 05:50:48;;;;;;;25.63;14.15;;;;;;;;;;5072155;28;20771;-69
2021/05/27 05:53:32;;;;;;;32.07;13.83;;;;;;;;;;5073191;28;20218;-69
2021/05/27 05:56:17;;;;;;;22.17;11.80;;;;;;;;;;5072545;28;20719;-69
2021/05/27 05:59:03;;;;;;;20.60;11.20;;;;;;;;;;5072977;28;20254;-69
2021/05/27 06:01:49;;;;;;;18.50;11.57;;;;;;;;;;5073180;28;20209;-69
2021/05/27 06:04:34;;;;;;;22.23;12.00;;;;;;;;;;5073090;28;20240;-69
2021/05/27 06:07:20;;;;;;;29.70;13.17;;;;;;;;;;5071915;28;20372;-69
2021/05/27 06:10:04;;;;;;;19.23;10.00;;;;;;;;;;5072944;28;20683;-69
2021/05/27 06:12:49;;;;;;;26.57;11.77;;;;;;;;;;5072761;28;20339;-70
2021/05/27 06:15:34;;;;;;;22.57;11.67;;;;;;;;;;5072101;28;20270;-69
2021/05/27 06:18:18;;;;;;;20.60;10.67;;;;;;;;;;5072837;28;20200;-69
2021/05/27 06:21:03;;;;;;;21.30;9.90;;;;;;;;;;5072454;28;20242;-68
2021/05/27 06:23:48;;;;;;;19.73;10.63;;;;;;;;;;5072586;28;20518;-68
2021/05/27 06:29:25;;;;;;;19.50;9.87;;;;;;;;;;5030752;28;20229;-76
2021/05/27 06:32:10;;;;;;;16.00;9.90;;;;;;;;;;5030711;28;20210;-74
2021/05/27 06:34:54;;;;;;;15.97;8.87;;;;;;;;;;5032630;28;20214;-73
2021/05/27 06:37:42;;;;;;;15.97;8.70;;;;;;;;;;5032676;28;20280;-73
2021/05/27 06:40:27;;;;;;;17.67;9.77;;;;;;;;;;5032193;28;20869;-74
2021/05/27 06:43:12;;;;;;;15.00;8.73;;;;;;;;;;5032124;28;20858;-76
2021/05/27 06:45:57;;;;;;;16.70;8.53;;;;;;;;;;5039135;28;20324;-74
2021/05/27 06:48:41;;;;;;;17.73;8.90;;;;;;;;;;5043688;28;20245;-73
2021/05/27 06:51:25;;;;;;;18.53;9.00;;;;;;;;;;5031912;28;20201;-73
2021/05/27 06:54:11;;;;;;;15.30;8.93;;;;;;;;;;5032064;28;20264;-75
2021/05/27 06:56:56;;;;;;;17.03;8.87;;;;;;;;;;5031497;28;20269;-75
2021/05/27 06:59:41;;;;;;;16.07;8.77;;;;;;;;;;5031861;28;20221;-73
2021/05/27 07:02:25;;;;;;;16.83;8.53;;;;;;;;;;5032149;28;20394;-72
2021/05/27 07:05:10;;;;;;;18.77;9.37;;;;;;;;;;5031243;28;20237;-73
2021/05/27 07:07:55;;;;;;;16.80;8.87;;;;;;;;;;5031752;28;20570;-72
2021/05/27 07:10:41;;;;;;;13.03;8.00;;;;;;;;;;5031784;28;20214;-72
2021/05/27 07:13:25;;;;;;;16.00;8.70;;;;;;;;;;5031493;28;20618;-72
2021/05/27 07:16:10;;;;;;;15.43;8.90;;;;;;;;;;5031143;28;20264;-77
2021/05/27 07:18:55;;;;;;;13.90;8.87;;;;;;;;;;5030995;28;20237;-76
2021/05/27 07:21:39;;;;;;;17.00;9.20;;;;;;;;;;5031501;28;20248;-74
2021/05/27 07:24:24;;;;;;;20.70;9.77;;;;;;;;;;5031647;28;20245;-74
2021/05/27 07:27:09;;;;;;;17.83;8.93;;;;;;;;;;5030938;28;20229;-75
2021/05/27 07:29:54;;;;;;;14.97;8.10;;;;;;;;;;5031418;28;20701;-74
2021/05/27 07:32:38;;;;;;;18.40;9.80;;;;;;;;;;5030993;28;20414;-75
2021/05/27 07:35:25;;;;;;;13.17;7.87;;;;;;;;;;5030945;28;20237;-75
2021/05/27 07:38:09;;;;;;;12.67;7.60;;;;;;;;;;5031446;28;20563;-76
2021/05/27 07:40:53;;;;;;;15.10;7.80;;;;;;;;;;5031198;28;20289;-74
2021/05/27 07:43:39;;;;;;;15.07;8.23;;;;;;;;;;5031076;28;20253;-74
2021/05/27 07:46:23;;;;;;;13.00;7.83;;;;;;;;;;5030729;28;20743;-75
2021/05/27 07:49:07;;;;;;;16.50;8.27;;;;;;;;;;5031216;28;20689;-74
2021/05/27 07:51:52;;;;;;;16.77;8.30;;;;;;;;;;5030692;28;20206;-73
2021/05/27 07:54:36;;;;;;;13.10;7.73;;;;;;;;;;5031034;28;20197;-73
2021/05/27 07:57:21;;;;;;;14.10;7.87;;;;;;;;;;5030513;28;20214;-73
2021/05/27 08:00:08;;;;;;;12.40;7.60;;;;;;;;;;5030894;28;20205;-76
2021/05/27 08:02:53;;;;;;;15.37;7.73;;;;;;;;;;5030895;28;20815;-76
2021/05/27 08:05:37;;;;;;;15.20;8.27;;;;;;;;;;5030729;28;20242;-75
2021/05/27 08:08:22;;;;;;;15.05;9.70;;;;;;;;;;5029998;28;20917;-74
2021/05/27 08:11:06;;;;;;;14.43;8.70;;;;;;;;;;5030777;28;20207;-75
2021/05/27 08:13:50;;;;;;;15.43;8.50;;;;;;;;;;5030699;28;20732;-75
2021/05/27 08:16:36;;;;;;;19.37;9.13;;;;;;;;;;5029939;28;20234;-74
2021/05/27 08:19:21;;;;;;;15.70;8.23;;;;;;;;;;5030708;28;20277;-76
2021/05/27 08:22:06;;;;;;;18.40;8.83;;;;;;;;;;5030663;28;20541;-78
2021/05/27 08:24:50;;;;;;;17.98;10.02;;;;;;;;;;5029631;28;20399;-76
2021/05/27 08:27:35;;;;;;;14.23;9.20;;;;;;;;;;5030654;28;20667;-76
2021/05/27 08:30:19;;;;;;;18.03;9.43;;;;;;;;;;5032222;28;20218;-75
2021/05/27 08:33:05;;;;;;;22.13;9.87;;;;;;;;;;5035482;28;20253;-70
2021/05/27 08:35:49;;;;;;;14.83;8.60;;;;;;;;;;5041692;28;20337;-74
2021/05/27 08:38:34;;;;;;;13.33;8.30;;;;;;;;;;5042708;28;20303;-71
2021/05/27 08:41:20;;;;;;;18.67;8.60;;;;;;;;;;5038447;28;20206;-73
2021/05/27 08:44:05;;;;;;;15.60;7.83;;;;;;;;;;5051586;28;20225;-73
2021/05/27 08:46:50;;;;;;;16.90;8.53;;;;;;;;;;5036816;28;20237;-73
2021/05/27 08:49:35;;;;;;;13.33;8.07;;;;;;;;;;5033714;28;20286;-73
2021/05/27 08:52:20;;;;;;;17.87;8.67;;;;;;;;;;5048301;28;20742;-72
2021/05/27 08:55:05;;;;;;;13.50;7.87;;;;;;;;;;5036629;28;20225;-73
2021/05/27 08:57:49;;;;;;;15.10;8.27;;;;;;;;;;5043368;28;20207;-71
2021/05/27 09:00:35;;;;;;;12.30;7.93;;;;;;;;;;5041906;28;20255;-72
2021/05/27 09:03:19;;;;;;;15.07;7.27;;;;;;;;;;5051148;28;20229;-75
2021/05/27 09:06:05;;;;;;;13.20;7.47;;;;;;;;;;5032202;28;20750;-74
2021/05/27 09:09:01;;;;;;;13.20;7.03;;;;;;;;;;5042952;28;20211;-75
2021/05/27 09:11:47;;;;;;;14.97;7.80;;;;;;;;;;5033003;28;20206;-75
2021/05/27 09:14:40;;;;;;;14.43;7.82;;;;;;;;;;5044355;28;20409;-73
2021/05/27 09:17:25;;;;;;;13.27;7.03;;;;;;;;;;5042572;28;20701;-75
2021/05/27 09:20:13;;;;;;;11.00;7.00;;;;;;;;;;5032634;28;20286;-75
2021/05/27 09:23:07;;;;;;;14.03;7.13;;;;;;;;;;5043100;28;20215;-75
2021/05/27 09:25:53;;;;;;;14.27;7.37;;;;;;;;;;5050928;28;20257;-75
2021/05/27 09:28:37;;;;;;;11.83;7.10;;;;;;;;;;5039161;28;20266;-75
2021/05/27 09:31:24;;;;;;;11.33;6.40;;;;;;;;;;5033227;28;20203;-75
2021/05/27 09:34:11;;;;;;;13.47;7.10;;;;;;;;;;5033498;28;20725;-75
2021/05/27 09:36:58;;;;;;;14.93;7.20;;;;;;;;;;5047696;28;20228;-75
2021/05/27 09:39:45;;;;;;;14.83;7.07;;;;;;;;;;5032455;28;20210;-75
2021/05/27 09:42:29;;;;;;;14.63;7.40;;;;;;;;;;5031677;28;20275;-76
2021/05/27 09:45:14;;;;;;;14.33;7.30;;;;;;;;;;5032206;28;20202;-74
2021/05/27 09:48:16;;;;;;;15.23;7.63;;;;;;;;;;5035410;28;20256;-75
2021/05/27 09:51:01;;;;;;;14.20;7.80;;;;;;;;;;5048056;28;20575;-73
2021/05/27 09:53:52;;;;;;;11.70;7.57;;;;;;;;;;5032228;28;20232;-74
2021/05/27 09:56:38;;;;;;;14.07;7.63;;;;;;;;;;5029466;28;20781;-73
2021/05/27 09:59:22;;;;;;;13.00;7.67;;;;;;;;;;5045705;28;20210;-73
2021/05/27 10:02:14;;;;;;;14.33;8.17;;;;;;;;;;5049756;28;20751;-74
2021/05/27 10:05:07;;;;;;;17.73;7.63;;;;;;;;;;5049671;28;20205;-73
2021/05/27 10:07:51;;;;;;;17.67;9.80;;;;;;;;;;5040012;28;20510;-73
2021/05/27 10:10:36;;;;;;;22.37;9.50;;;;;;;;;;5036379;28;20217;-73
2021/05/27 10:13:26;;;;;;;18.27;8.40;;;;;;;;;;5049474;28;20280;-73
2021/05/27 10:16:11;;;;;;;16.40;8.10;;;;;;;;;;5044209;28;20230;-73
2021/05/27 10:18:56;;;;;;;19.97;7.83;;;;;;;;;;5030934;28;20211;-72
2021/05/27 10:21:41;;;;;;;19.10;8.17;;;;;;;;;;5031836;28;20200;-73
2021/05/27 10:24:25;;;;;;;12.60;7.33;;;;;;;;;;5047572;28;20202;-73
2021/05/27 10:27:10;;;;;;;16.40;8.23;;;;;;;;;;5043645;28;20215;-73
2021/05/27 10:29:56;;;;;;;17.07;8.57;;;;;;;;;;5049314;28;20217;-73
2021/05/27 10:32:42;;;;;;;14.00;7.80;;;;;;;;;;5044050;28;20597;-72
2021/05/27 10:35:42;;;;;;;15.20;7.90;;;;;;;;;;5048350;28;20319;-73
2021/05/27 10:38:43;;;;;;;14.73;7.83;;;;;;;;;;5044755;28;20239;-73
2021/05/27 10:41:47;;;;;;;16.63;8.40;;;;;;;;;;5029245;28;20224;-73
2021/05/27 10:44:31;;;;;;;17.33;7.77;;;;;;;;;;5031081;28;20221;-73
2021/05/27 10:47:17;;;;;;;15.97;8.20;;;;;;;;;;5030596;28;20276;-73
2021/05/27 10:50:02;;;;;;;19.10;8.63;;;;;;;;;;5029384;28;20213;-73
2021/05/27 10:52:47;;;;;;;18.13;9.33;;;;;;;;;;5031133;28;20232;-76
2021/05/27 10:55:47;;;;;;;17.90;9.70;;;;;;;;;;5030155;28;21344;-75
2021/05/27 10:58:52;;;;;;;16.50;10.07;;;;;;;;;;5037492;28;20538;-73
2021/05/27 11:01:52;;;;;;;17.73;9.43;;;;;;;;;;5030569;28;20252;-73
2021/05/27 11:04:41;;;;;;;14.73;7.60;;;;;;;;;;5030686;28;20268;-73
2021/05/27 11:07:25;;;;;;;14.43;8.37;;;;;;;;;;5031863;28;20230;-73
2021/05/27 11:10:27;;;;;;;16.90;8.27;;;;;;;;;;5030734;28;20204;-73
2021/05/27 11:13:13;;;;;;;12.80;7.40;;;;;;;;;;5041542;28;20270;-73
2021/05/27 11:16:05;;;;;;;16.40;9.07;;;;;;;;;;5027826;28;20251;-74
2021/05/27 11:18:49;;;;;;;13.37;7.77;;;;;;;;;;5036602;28;20263;-72
2021/05/27 11:21:36;;;;;;;11.70;7.37;;;;;;;;;;5051488;28;20570;-73
2021/05/27 11:24:35;;;;;;;13.00;8.47;;;;;;;;;;5051041;28;20306;-73
2021/05/27 11:27:27;;;;;;;12.60;7.60;;;;;;;;;;5050851;28;20222;-73
2021/05/27 11:30:15;;;;;;;15.50;7.67;;;;;;;;;;5051406;28;20303;-75
2021/05/27 11:33:02;;;;;;;15.15;8.70;;;;;;;;;;5050722;28;20536;-75
2021/05/27 11:35:48;;;;;;;12.93;8.47;;;;;;;;;;5050677;28;20259;-74
2021/05/27 11:38:34;;;;;;;15.60;7.47;;;;;;;;;;5051263;28;20204;-74
2021/05/27 11:41:19;;;;;;;13.00;8.00;;;;;;;;;;5011411;28;20204;-73
2021/05/27 11:44:04;;;;;;;13.73;7.50;;;;;;;;;;5011282;28;20204;-73
2021/05/27 11:46:53;;;;;;;9.17;6.53;;;;;;;;;;5011013;28;20209;-74
2021/05/27 11:49:53;;;;;;;14.88;9.30;;;;;;;;;;5010398;28;20399;-72
2021/05/27 11:52:37;;;;;;;15.13;8.80;;;;;;;;;;5011305;28;20243;-72
2021/05/27 11:55:23;;;;;;;13.43;7.73;;;;;;;;;;5037286;28;20714;-71
2021/05/27 11:58:07;;;;;;;15.40;8.67;;;;;;;;;;5051096;28;20227;-74
2021/05/27 12:00:52;;;;;;;11.70;7.30;;;;;;;;;;5050898;28;20211;-72
2021/05/27 12:03:36;;;;;;;13.07;7.43;;;;;;;;;;5050663;28;20236;-72
2021/05/27 12:06:21;;;;;;;16.30;7.53;;;;;;;;;;5049753;28;20275;-73
2021/05/27 12:09:05;;;;;;;11.83;7.40;;;;;;;;;;5050782;28;20690;-73
2021/05/27 12:11:51;;;;;;;16.40;7.23;;;;;;;;;;5047491;28;20236;-74
2021/05/27 12:14:40;;;;;;;9.70;6.80;;;;;;;;;;5030743;28;20209;-71
2021/05/27 12:17:27;;;;;;;15.37;7.80;;;;;;;;;;5030347;28;20672;-72
2021/05/27 12:20:13;;;;;;;17.07;8.03;;;;;;;;;;5030867;28;20205;-72
2021/05/27 12:23:00;;;;;;;15.77;7.67;;;;;;;;;;5030957;28;20244;-72
2021/05/27 12:25:46;;;;;;;15.70;7.83;;;;;;;;;;5030680;28;20237;-71
2021/05/27 12:28:32;;;;;;;16.47;8.17;;;;;;;;;;5030775;28;20217;-73
2021/05/27 12:31:16;;;;;;;15.67;8.60;;;;;;;;;;5030400;28;20271;-73
2021/05/27 12:34:06;;;;;;;13.13;8.50;;;;;;;;;;5030635;28;20247;-73
2021/05/27 12:36:51;;;;;;;13.23;8.37;;;;;;;;;;5029913;28;20604;-73
2021/05/27 12:39:37;;;;;;;12.77;7.20;;;;;;;;;;5030282;28;20790;-73
2021/05/27 12:42:21;;;;;;;14.57;9.75;;;;;;;;;;5029225;28;20469;-73
2021/05/27 12:45:23;;;;;;;14.57;7.80;;;;;;;;;;5030079;28;20205;-73
2021/05/27 12:48:08;;;;;;;10.83;7.47;;;;;;;;;;5030473;28;20264;-73
2021/05/27 12:51:00;;;;;;;11.00;8.20;;;;;;;;;;5030264;28;20668;-73
2021/05/27 12:53:50;;;;;;;12.97;8.07;;;;;;;;;;5030308;28;20304;-73
2021/05/27 12:56:35;;;;;;;11.27;7.20;;;;;;;;;;5029737;28;20236;-73
2021/05/27 12:59:23;;;;;;;14.23;8.27;;;;;;;;;;5030298;28;20264;-73
2021/05/27 13:02:10;;;;;;;10.60;7.00;;;;;;;;;;5029891;28;20581;-73
2021/05/27 13:04:55;;;;;;;14.07;7.00;;;;;;;;;;5030245;28;20225;-73
2021/05/27 13:07:52;;;;;;;10.77;6.70;;;;;;;;;;5030374;28;20259;-74
2021/05/27 13:10:38;;;;;;;15.93;7.47;;;;;;;;;;5030367;28;20241;-74
2021/05/27 13:13:30;;;;;;;12.63;6.47;;;;;;;;;;5029947;28;20727;-73
2021/05/27 13:16:35;;;;;;;15.00;8.20;;;;;;;;;;5028470;28;20469;-74
2021/05/27 13:19:30;;;;;;;16.40;6.60;;;;;;;;;;5034211;28;20418;-74
2021/05/27 13:22:23;;;;;;;9.33;5.20;;;;;;;;;;5033913;28;20771;-73
2021/05/27 13:25:08;;;;;;;9.40;4.53;;;;;;;;;;5033063;28;20201;-74
2021/05/27 13:27:54;;;;;;;12.50;5.00;;;;;;;;;;5033628;28;20691;-73
2021/05/27 13:30:43;;;;;;;6.50;3.67;;;;;;;;;;5037076;28;20254;-73
2021/05/27 13:33:28;;;;;;;8.48;4.30;;;;;;;;;;5052015;28;20769;-73
2021/05/27 13:36:21;;;;;;;10.17;4.20;;;;;;;;;;5052757;28;20282;-73
2021/05/27 13:39:16;;;;;;;7.70;3.10;;;;;;;;;;5051684;28;20212;-73
2021/05/27 13:42:00;;;;;;;7.93;4.07;;;;;;;;;;5033794;28;20216;-72
2021/05/27 13:44:45;;;;;;;10.77;3.40;;;;;;;;;;5033427;28;20560;-72
2021/05/27 13:47:29;;;;;;;5.50;2.87;;;;;;;;;;5033341;28;20208;-72
2021/05/27 13:50:14;;;;;;;7.57;2.93;;;;;;;;;;5033305;28;20574;-73
2021/05/27 13:53:01;;;;;;;8.67;3.30;;;;;;;;;;5033602;28;20596;-73
2021/05/27 13:55:51;;;;;;;8.53;3.20;;;;;;;;;;5032383;28;20716;-73
2021/05/27 13:58:35;;;;;;;5.43;2.87;;;;;;;;;;5033027;28;20305;-73
2021/05/27 14:01:21;;;;;;;5.77;2.90;;;;;;;;;;5033409;28;20249;-74
2021/05/27 14:04:07;;;;;;;7.53;3.03;;;;;;;;;;5033084;28;20278;-73
2021/05/27 14:06:52;;;;;;;6.97;2.80;;;;;;;;;;5032248;28;20226;-75
2021/05/27 14:09:37;;;;;;;5.93;2.30;;;;;;;;;;5032713;28;20302;-75
2021/05/27 14:12:22;;;;;;;4.37;1.93;;;;;;;;;;5032811;28;20228;-75
2021/05/27 14:15:07;;;;;;;5.73;2.10;;;;;;;;;;5032368;28;20282;-74
2021/05/27 14:17:51;;;;;;;5.30;1.93;;;;;;;;;;5032812;28;20332;-74
2021/05/27 14:20:36;;;;;;;4.00;2.00;;;;;;;;;;5032530;28;20202;-74
2021/05/27 14:23:20;;;;;;;6.07;2.33;;;;;;;;;;5032652;28;20478;-74
2021/05/27 14:26:05;;;;;;;4.33;2.00;;;;;;;;;;5032596;28;20255;-74
2021/05/27 14:28:50;;;;;;;3.27;2.00;;;;;;;;;;5032048;28;20256;-74
2021/05/27 14:31:34;;;;;;;5.47;2.27;;;;;;;;;;5032647;28;20293;-78
2021/05/27 14:34:19;;;;;;;6.20;2.57;;;;;;;;;;5032650;28;20312;-72
2021/05/27 14:37:03;;;;;;;6.30;2.60;;;;;;;;;;5031708;28;20316;-73
2021/05/27 14:39:48;;;;;;;4.97;2.40;;;;;;;;;;5032323;28;20212;-72
2021/05/27 14:42:34;;;;;;;10.27;2.90;;;;;;;;;;5032279;28;20333;-72
2021/05/27 14:45:18;;;;;;;5.27;2.57;;;;;;;;;;5031854;28;20211;-72
2021/05/27 14:48:03;;;;;;;6.57;2.63;;;;;;;;;;5032254;28;20567;-72
2021/05/27 14:50:48;;;;;;;7.57;2.97;;;;;;;;;;5032142;28;20212;-72
2021/05/27 14:53:33;;;;;;;9.27;3.10;;;;;;;;;;5032092;28;20203;-73
2021/05/27 14:56:17;;;;;;;8.93;2.93;;;;;;;;;;5031428;28;20265;-72
2021/05/27 14:59:02;;;;;;;9.07;3.55;;;;;;;;;;5030722;28;20464;-75
2021/05/27 15:01:47;;;;;;;7.30;2.60;;;;;;;;;;5032102;28;20593;-74
2021/05/27 15:04:33;;;;;;;8.47;3.27;;;;;;;;;;5031959;28;20213;-76
2021/05/27 15:07:17;;;;;;;8.00;3.00;;;;;;;;;;5031313;28;20677;-76
2021/05/27 15:10:02;;;;;;;7.80;2.97;;;;;;;;;;5031974;28;20609;-77
2021/05/27 15:12:46;;;;;;;5.20;2.50;;;;;;;;;;5031796;28;20576;-75
2021/05/27 15:15:32;;;;;;;7.60;3.90;;;;;;;;;;5010052;28;21001;-77
2021/05/27 15:18:16;;;;;;;9.90;3.27;;;;;;;;;;5012037;28;20206;-77
2021/05/27 15:21:01;;;;;;;6.93;3.70;;;;;;;;;;5011987;28;20208;-76
2021/05/27 15:23:46;;;;;;;7.13;2.80;;;;;;;;;;5012034;28;20253;-76
2021/05/27 15:26:30;;;;;;;7.50;3.07;;;;;;;;;;5011426;28;20767;-79
2021/05/27 15:29:19;;;;;;;6.33;3.13;;;;;;;;;;5011622;28;20208;-74
2021/05/27 15:32:05;;;;;;;7.13;2.80;;;;;;;;;;5012137;28;20233;-75
2021/05/27 15:34:49;;;;;;;8.53;2.73;;;;;;;;;;5011750;28;20209;-74
2021/05/27 15:37:34;;;;;;;7.50;3.00;;;;;;;;;;5011634;28;20212;-74
2021/05/27 15:40:20;;;;;;;4.20;2.83;;;;;;;;;;5021836;28;20334;-75
2021/05/27 15:43:06;;;;;;;7.83;2.90;;;;;;;;;;5031281;28;20248;-74
2021/05/27 15:45:50;;;;;;;5.97;2.67;;;;;;;;;;5011074;28;20213;-74
2021/05/27 15:48:36;;;;;;;7.43;2.87;;;;;;;;;;5020224;28;20216;-76
2021/05/27 15:51:20;;;;;;;7.53;2.93;;;;;;;;;;5030966;28;20723;-80
2021/05/27 15:54:08;;;;;;;6.27;2.40;;;;;;;;;;5031751;28;20571;-76
2021/05/27 15:56:53;;;;;;;6.63;2.87;;;;;;;;;;5030446;28;20226;-75
2021/05/27 15:59:37;;;;;;;5.83;2.93;;;;;;;;;;5030982;28;20227;-75
2021/05/27 16:02:22;;;;;;;6.70;3.20;;;;;;;;;;5030968;28;20275;-74
2021/05/27 16:05:08;;;;;;;7.32;3.30;;;;;;;;;;5030129;28;20410;-77
2021/05/27 16:07:53;;;;;;;4.33;3.93;;;;;;;;;;5030970;28;20213;-76
2021/05/27 16:10:38;;;;;;;11.17;7.63;;;;;;;;;;5030616;28;20204;-78
2021/05/27 16:13:23;;;;;;;5.97;2.70;;;;;;;;;;5033629;28;20208;-77
2021/05/27 16:16:07;;;;;;;8.17;2.80;;;;;;;;;;5050620;28;20295;-77
2021/05/27 16:18:51;;;;;;;6.63;2.97;;;;;;;;;;5050920;28;20263;-75
2021/05/27 16:21:37;;;;;;;7.13;2.80;;;;;;;;;;5050828;28;20248;-78
2021/05/27 16:24:21;;;;;;;8.17;3.20;;;;;;;;;;5050677;28;20578;-78
2021/05/27 16:27:06;;;;;;;8.17;3.07;;;;;;;;;;5050145;28;20212;-75
2021/05/27 16:29:50;;;;;;;7.57;3.77;;;;;;;;;;5050715;28;20204;-75